Time;durP1;ratioP1;P1;durP2;ratioP2;P2;SDS_P1;SDS_P2;PMS_P1;PMS_P2;Temp;Humidity;BMP_temperature;BMP_pressure;BME280_temperature;BME280_humidity;BME280_pressure;Samples;Min_cycle;Max_cycle;Signal;HPM_P1;HPM_P2
2022/04/10 00:00:55;;;;;;;;;;;;;;;17.52;51.85;100058.41;2079006;28;20433;-43
2022/04/10 00:01:56;;;;;;;;;;;;;;;17.52;51.91;100067.44;2080221;28;20298;-44
2022/04/10 00:02:56;;;;;;;;;;;;;;;17.51;51.89;100071.16;2081723;28;19920;-43
2022/04/10 00:03:59;;;;;;;;;;;;;;;17.50;51.90;100069.44;2077659;28;19991;-44
2022/04/10 00:04:59;;;;;;;;;;;;;;;17.52;51.84;100072.03;2075728;28;19991;-44
2022/04/10 00:06:00;;;;;;;;;;;;;;;17.51;51.87;100071.16;2084267;28;19916;-45
2022/04/10 00:07:00;;;;;;;;;;;;;;;17.50;51.78;100074.88;2077804;28;19926;-44
2022/04/10 00:08:01;;;;;;;;;;;;;;;17.52;51.82;100072.88;2081883;28;19927;-43
2022/04/10 00:09:01;;;;;;;;;;;;;;;17.52;51.79;100078.34;2082092;28;19919;-43
2022/04/10 00:10:02;;;;;;;;;;;;;;;17.52;51.89;100072.88;2079855;28;19924;-44
2022/04/10 00:11:02;;;;;;;;;;;;;;;17.52;51.99;100067.44;2080209;28;19921;-43
2022/04/10 00:12:03;;;;;;;;;;;;;;;17.52;51.73;100072.88;2079370;28;20358;-43
2022/04/10 00:13:03;;;;;;;;;;;;;;;17.51;51.85;100068.41;2081305;28;20685;-44
2022/04/10 00:14:04;;;;;;;;;;;;;;;17.51;51.74;100062.97;2079889;28;19928;-43
2022/04/10 00:15:04;;;;;;;;;;;;;;;17.53;51.73;100077.31;2082342;28;19912;-43
2022/04/10 00:16:05;;;;;;;;;;;;;;;17.51;51.67;100071.16;2078904;28;19913;-43
2022/04/10 00:17:06;;;;;;;;;;;;;;;17.52;51.60;100078.34;2083264;28;19920;-44
2022/04/10 00:18:06;;;;;;;;;;;;;;;17.52;51.81;100075.63;2081619;28;20330;-42
2022/04/10 00:19:07;;;;;;;;;;;;;;;17.52;51.63;100072.88;2080063;28;20027;-46
2022/04/10 00:20:09;;;;;;;;;;;;;;;17.52;51.60;100081.06;2077162;28;20323;-44
2022/04/10 00:21:09;;;;;;;;;;;;;;;17.52;51.72;100078.34;2082858;28;19931;-43
2022/04/10 00:22:10;;;;;;;;;;;;;;;17.51;51.76;100082.06;2078526;28;19920;-42
2022/04/10 00:23:10;;;;;;;;;;;;;;;17.52;51.65;100081.06;2082850;28;19924;-42
2022/04/10 00:24:11;;;;;;;;;;;;;;;17.51;51.75;100082.06;2087678;28;19935;-43
2022/04/10 00:25:12;;;;;;;;;;;;;;;17.52;51.84;100077.47;2094066;28;20130;-42
2022/04/10 00:26:13;;;;;;;;;;;;;;;17.51;51.84;100073.88;2080620;28;19920;-44
2022/04/10 00:27:14;;;;;;;;;;;;;;;17.50;51.70;100076.75;2082478;28;20231;-43
2022/04/10 00:28:15;;;;;;;;;;;;;;;17.50;51.74;100074.88;2082090;28;20122;-46
2022/04/10 00:29:15;;;;;;;;;;;;;;;17.50;51.50;100074.88;2079179;28;20466;-43
2022/04/10 00:30:16;;;;;;;;;;;;;;;17.51;51.63;100076.59;2083271;28;19916;-43
2022/04/10 00:31:16;;;;;;;;;;;;;;;17.48;51.62;100076.88;2081515;28;20223;-45
2022/04/10 00:32:16;;;;;;;;;;;;;;;17.49;51.61;100073.19;2083445;28;19920;-44
2022/04/10 00:33:17;;;;;;;;;;;;;;;17.50;51.75;100085.78;2081608;28;19920;-43
2022/04/10 00:34:17;;;;;;;;;;;;;;;17.49;51.68;100081.34;2082429;28;19925;-44
2022/04/10 00:35:17;;;;;;;;;;;;;;;17.49;51.57;100077.75;2077126;28;19921;-44
2022/04/10 00:36:17;;;;;;;;;;;;;;;17.48;51.89;100076.03;2079677;28;20338;-43
2022/04/10 00:37:18;;;;;;;;;;;;;;;17.48;51.77;100076.88;2078325;28;19963;-44
2022/04/10 00:38:20;;;;;;;;;;;;;;;17.47;51.58;100075.19;2081445;28;20350;-42
2022/04/10 00:39:20;;;;;;;;;;;;;;;17.47;51.93;100074.31;2079892;28;20017;-43
2022/04/10 00:40:20;;;;;;;;;;;;;;;17.47;51.69;100087.94;2077923;28;19924;-43
2022/04/10 00:41:21;;;;;;;;;;;;;;;17.46;51.80;100078.88;2082145;28;19920;-43
2022/04/10 00:42:21;;;;;;;;;;;;;;;17.46;51.72;100078.88;2080041;28;20342;-42
2022/04/10 00:43:22;;;;;;;;;;;;;;;17.46;51.70;100080.75;2082835;28;19920;-43
2022/04/10 00:44:22;;;;;;;;;;;;;;;17.45;51.67;100079.91;2080272;28;19925;-42
2022/04/10 00:45:23;;;;;;;;;;;;;;;17.44;51.75;100075.47;2083796;28;20333;-42
2022/04/10 00:46:24;;;;;;;;;;;;;;;17.45;51.71;100076.31;2076296;28;19913;-43
2022/04/10 00:47:24;;;;;;;;;;;;;;;17.44;51.83;100075.47;2085567;28;20319;-42
2022/04/10 00:48:25;;;;;;;;;;;;;;;17.44;51.75;100072.75;2082616;28;19959;-43
2022/04/10 00:49:26;;;;;;;;;;;;;;;17.44;51.83;100080.91;2080899;28;20063;-42
2022/04/10 00:50:26;;;;;;;;;;;;;;;17.44;51.66;100074.56;2076343;28;19925;-42
2022/04/10 00:51:46;;;;;;;;;;;;;;;17.44;51.70;100075.47;2083319;28;20337;-45
2022/04/10 00:52:47;;;;;;;;;;;;;;;17.44;51.63;100064.56;2080216;28;20334;-42
2022/04/10 00:53:48;;;;;;;;;;;;;;;17.43;51.84;100068.28;2078988;28;19970;-42
2022/04/10 00:54:48;;;;;;;;;;;;;;;17.43;51.98;100068.28;2082845;28;20542;-44
2022/04/10 00:55:49;;;;;;;;;;;;;;;17.43;51.64;100068.28;2080425;28;20379;-43
2022/04/10 00:56:49;;;;;;;;;;;;;;;17.44;51.56;100066.41;2079039;28;19913;-43
2022/04/10 00:57:50;;;;;;;;;;;;;;;17.42;51.84;100066.56;2079059;28;19967;-42
2022/04/10 00:58:50;;;;;;;;;;;;;;;17.43;51.81;100062.81;2082694;28;19916;-42
2022/04/10 00:59:51;;;;;;;;;;;;;;;17.43;51.97;100064.69;2079997;28;20248;-42
2022/04/10 01:00:51;;;;;;;;;;;;;;;17.42;51.67;100063.84;2082826;28;20475;-44
2022/04/10 01:01:52;;;;;;;;;;;;;;;17.41;51.90;100059.38;2079063;28;20357;-45
2022/04/10 01:02:52;;;;;;;;;;;;;;;17.41;51.84;100058.50;2081745;28;19946;-42
2022/04/10 01:03:53;;;;;;;;;;;;;;;17.41;51.84;100070.28;2076692;28;20416;-44
2022/04/10 01:04:53;;;;;;;;;;;;;;;17.41;51.93;100058.50;2081481;28;19994;-43
2022/04/10 01:05:54;;;;;;;;;;;;;;;17.40;51.83;100060.38;2081213;28;20397;-42
2022/04/10 01:06:54;;;;;;;;;;;;;;;17.40;51.75;100057.66;2079377;28;19959;-43
2022/04/10 01:07:54;;;;;;;;;;;;;;;17.40;51.84;100063.09;2079393;28;20125;-43
2022/04/10 01:08:55;;;;;;;;;;;;;;;17.40;51.83;100064.97;2077937;28;20309;-43
2022/04/10 01:09:56;;;;;;;;;;;;;;;17.39;52.01;100050.47;2080515;28;20085;-42
2022/04/10 01:10:56;;;;;;;;;;;;;;;17.39;51.80;100055.91;2078277;28;19929;-43
2022/04/10 01:11:57;;;;;;;;;;;;;;;17.39;51.78;100055.91;2079416;28;19923;-42
2022/04/10 01:12:57;;;;;;;;;;;;;;;17.38;51.95;100051.47;2079811;28;19974;-44
2022/04/10 01:13:58;;;;;;;;;;;;;;;17.38;51.86;100048.75;2078741;28;19978;-44
2022/04/10 01:14:59;;;;;;;;;;;;;;;17.38;52.03;100045.19;2078036;28;19959;-42
2022/04/10 01:15:59;;;;;;;;;;;;;;;17.39;51.77;100050.47;2079433;28;19968;-42
2022/04/10 01:17:00;;;;;;;;;;;;;;;17.39;51.78;100045.03;2079544;28;19916;-42
2022/04/10 01:18:00;;;;;;;;;;;;;;;17.38;51.76;100046.03;2082272;28;19958;-43
2022/04/10 01:19:04;;;;;;;;;;;;;;;17.39;51.63;100042.28;2075296;28;19924;-43
2022/04/10 01:20:04;;;;;;;;;;;;;;;17.41;51.81;100039.44;2083164;28;19921;-44
2022/04/10 01:21:05;;;;;;;;;;;;;;;17.40;52.07;100046.75;2082878;28;19921;-44
2022/04/10 01:22:06;;;;;;;;;;;;;;;17.40;51.96;100041.31;2081201;28;20378;-43
2022/04/10 01:23:07;;;;;;;;;;;;;;;17.41;51.78;100039.44;2083862;28;19928;-42
2022/04/10 01:24:09;;;;;;;;;;;;;;;17.42;51.97;100036.59;2075106;28;20557;-43
2022/04/10 01:25:09;;;;;;;;;;;;;;;17.43;51.83;100038.31;2079267;28;20140;-43
2022/04/10 01:26:09;;;;;;;;;;;;;;;17.43;51.84;100041.03;2082591;28;20583;-44
2022/04/10 01:27:10;;;;;;;;;;;;;;;17.44;51.76;100042.75;2083484;28;20259;-44
2022/04/10 01:28:11;;;;;;;;;;;;;;;17.43;51.82;100038.31;2084274;28;19921;-44
2022/04/10 01:29:13;;;;;;;;;;;;;;;17.45;51.96;100032.72;2082060;28;19925;-43
2022/04/10 01:30:14;;;;;;;;;;;;;;;17.44;51.82;100041.88;2084962;28;19924;-43
2022/04/10 01:31:15;;;;;;;;;;;;;;;17.44;51.98;100037.31;2079850;28;20315;-43
2022/04/10 01:32:15;;;;;;;;;;;;;;;17.42;51.96;100036.59;2081372;28;19908;-42
2022/04/10 01:33:16;;;;;;;;;;;;;;;17.44;52.14;100039.16;2084000;28;19925;-43
2022/04/10 01:34:16;;;;;;;;;;;;;;;17.42;52.13;100036.59;2083367;28;19916;-43
2022/04/10 01:35:17;;;;;;;;;;;;;;;17.43;52.01;100035.56;2083298;28;19920;-43
2022/04/10 01:36:18;;;;;;;;;;;;;;;17.43;52.06;100032.84;2079780;28;19916;-44
2022/04/10 01:37:19;;;;;;;;;;;;;;;17.43;51.99;100035.56;2081744;28;19920;-43
2022/04/10 01:38:19;;;;;;;;;;;;;;;17.42;51.79;100033.88;2082799;28;19943;-43
2022/04/10 01:39:21;;;;;;;;;;;;;;;17.43;51.90;100032.84;2080424;28;19932;-43
2022/04/10 01:40:21;;;;;;;;;;;;;;;17.42;51.91;100028.41;2083154;28;20427;-43
2022/04/10 01:41:24;;;;;;;;;;;;;;;17.43;51.81;100032.84;2082936;28;20409;-45
2022/04/10 01:42:24;;;;;;;;;;;;;;;17.44;52.00;100030.97;2083359;28;19923;-43
2022/04/10 01:43:25;;;;;;;;;;;;;;;17.42;51.99;100027.53;2082853;28;20409;-44
2022/04/10 01:44:25;;;;;;;;;;;;;;;17.42;51.82;100033.88;2077895;28;19916;-44
2022/04/10 01:45:25;;;;;;;;;;;;;;;17.41;51.79;100025.81;2081149;28;20372;-43
2022/04/10 01:46:27;;;;;;;;;;;;;;;17.41;51.69;100025.81;2081910;28;20072;-44
2022/04/10 01:47:27;;;;;;;;;;;;;;;17.41;51.65;100025.81;2082947;28;19924;-42
2022/04/10 01:48:27;;;;;;;;;;;;;;;17.40;51.74;100024.97;2081181;28;20073;-43
2022/04/10 01:49:27;;;;;;;;;;;;;;;17.40;51.64;100024.97;2081113;28;20646;-42
2022/04/10 01:50:28;;;;;;;;;;;;;;;17.40;51.79;100022.25;2082518;28;19917;-43
2022/04/10 01:51:28;;;;;;;;;;;;;;;17.40;51.91;100019.50;2080962;28;19916;-43
2022/04/10 01:52:28;;;;;;;;;;;;;;;17.39;51.74;100023.22;2078985;28;19982;-43
2022/04/10 01:53:29;;;;;;;;;;;;;;;17.40;51.95;100024.97;2087447;28;19924;-44
2022/04/10 01:54:31;;;;;;;;;;;;;;;17.39;51.76;100023.22;2082781;28;19923;-43
2022/04/10 01:55:31;;;;;;;;;;;;;;;17.39;51.83;100028.66;2081416;28;19920;-43
2022/04/10 01:56:31;;;;;;;;;;;;;;;17.39;51.87;100023.22;2081296;28;19908;-43
2022/04/10 01:57:31;;;;;;;;;;;;;;;17.39;51.77;100017.78;2083124;28;20352;-42
2022/04/10 01:58:34;;;;;;;;;;;;;;;17.38;51.88;100021.50;2084208;28;19909;-45
2022/04/10 01:59:34;;;;;;;;;;;;;;;17.39;51.67;100023.22;2080565;28;19924;-43
2022/04/10 02:00:35;;;;;;;;;;;;;;;17.38;51.75;100024.25;2083745;28;19947;-43
2022/04/10 02:01:35;;;;;;;;;;;;;;;17.37;51.96;100019.81;2081532;28;19928;-44
2022/04/10 02:02:36;;;;;;;;;;;;;;;17.37;51.84;100019.81;2080203;28;20277;-46
2022/04/10 02:03:37;;;;;;;;;;;;;;;17.36;51.73;100012.59;2080133;28;19936;-42
2022/04/10 02:04:37;;;;;;;;;;;;;;;17.36;51.62;100023.50;2080837;28;19920;-42
2022/04/10 02:05:38;;;;;;;;;;;;;;;17.36;51.83;100023.50;2078266;28;20771;-42
2022/04/10 02:06:38;;;;;;;;;;;;;;;17.36;51.78;100023.50;2080966;28;19912;-43
2022/04/10 02:07:38;;;;;;;;;;;;;;;17.36;51.70;100020.78;2082017;28;20323;-42
2022/04/10 02:08:41;;;;;;;;;;;;;;;17.36;51.86;100018.06;2080846;28;20028;-44
2022/04/10 02:09:41;;;;;;;;;;;;;;;17.35;51.68;100022.66;2080086;28;19927;-44
2022/04/10 02:10:42;;;;;;;;;;;;;;;17.35;51.94;100014.47;2079968;28;19919;-43
2022/04/10 02:11:42;;;;;;;;;;;;;;;17.35;51.94;100021.81;2081439;28;19918;-43
2022/04/10 02:12:42;;;;;;;;;;;;;;;17.34;51.64;100014.59;2088682;28;20365;-43
2022/04/10 02:13:43;;;;;;;;;;;;;;;17.34;51.78;100020.94;2078940;28;19962;-43
2022/04/10 02:14:43;;;;;;;;;;;;;;;17.35;51.91;100021.81;2088713;28;19935;-44
2022/04/10 02:15:43;;;;;;;;;;;;;;;17.35;51.66;100013.63;2094755;28;19924;-42
2022/04/10 02:16:44;;;;;;;;;;;;;;;17.34;51.61;100020.94;2078802;28;20003;-43
2022/04/10 02:17:44;;;;;;;;;;;;;;;17.34;51.71;100009.16;2080155;28;20043;-43
2022/04/10 02:18:46;;;;;;;;;;;;;;;17.34;51.77;100009.16;2078129;28;19943;-43
2022/04/10 02:19:46;;;;;;;;;;;;;;;17.34;51.67;100011.88;2078087;28;20340;-42
2022/04/10 02:20:46;;;;;;;;;;;;;;;17.33;51.92;100012.91;2080788;28;20027;-50
2022/04/10 02:21:47;;;;;;;;;;;;;;;17.33;51.80;100010.19;2078227;28;20011;-44
2022/04/10 02:22:47;;;;;;;;;;;;;;;17.33;52.01;100016.47;2089591;28;19928;-42
2022/04/10 02:23:47;;;;;;;;;;;;;;;17.31;51.69;100010.31;2089329;28;20319;-43
2022/04/10 02:24:49;;;;;;;;;;;;;;;17.33;51.84;100013.75;2082578;28;19960;-44
2022/04/10 02:25:50;;;;;;;;;;;;;;;17.32;51.84;100016.59;2079362;28;19921;-43
2022/04/10 02:26:50;;;;;;;;;;;;;;;17.33;51.93;100015.63;2079396;28;19920;-42
2022/04/10 02:27:50;;;;;;;;;;;;;;;17.33;51.89;100018.34;2082375;28;20791;-43
2022/04/10 02:28:51;;;;;;;;;;;;;;;17.31;51.83;100015.75;2082710;28;19920;-42
2022/04/10 02:29:51;;;;;;;;;;;;;;;17.32;51.94;100016.59;2083436;28;19924;-43
2022/04/10 02:30:51;;;;;;;;;;;;;;;17.32;52.02;100019.34;2081334;28;19920;-43
2022/04/10 02:31:52;;;;;;;;;;;;;;;17.30;51.92;100008.59;2079012;28;19920;-43
2022/04/10 02:32:52;;;;;;;;;;;;;;;17.30;51.75;100011.31;2083611;28;20015;-43
2022/04/10 02:33:52;;;;;;;;;;;;;;;17.29;51.67;100006.84;2079160;28;19920;-42
2022/04/10 02:34:53;;;;;;;;;;;;;;;17.30;52.00;100014.03;2081342;28;19967;-42
2022/04/10 02:35:53;;;;;;;;;;;;;;;17.31;51.82;100014.91;2081191;28;19924;-43
2022/04/10 02:36:53;;;;;;;;;;;;;;;17.30;51.70;100014.03;2080410;28;20343;-42
2022/04/10 02:37:54;;;;;;;;;;;;;;;17.30;51.56;100008.59;2079707;28;20335;-43
2022/04/10 02:38:54;;;;;;;;;;;;;;;17.31;51.77;100014.91;2079939;28;20355;-43
2022/04/10 02:39:54;;;;;;;;;;;;;;;17.32;51.84;100013.88;2080903;28;19943;-44
2022/04/10 02:40:55;;;;;;;;;;;;;;;17.31;51.70;100015.75;2082932;28;20267;-42
2022/04/10 02:41:55;;;;;;;;;;;;;;;17.32;52.06;100017.50;2082199;28;19920;-43
2022/04/10 02:42:55;;;;;;;;;;;;;;;17.32;51.87;100011.16;2081364;28;20875;-43
2022/04/10 02:43:55;;;;;;;;;;;;;;;17.34;51.81;100020.06;2080862;28;19916;-42
2022/04/10 02:44:56;;;;;;;;;;;;;;;17.33;51.80;100012.91;2081452;28;20219;-43
2022/04/10 02:45:56;;;;;;;;;;;;;;;17.34;51.85;100020.06;2084209;28;19924;-43
2022/04/10 02:46:56;;;;;;;;;;;;;;;17.35;51.94;100019.06;2081174;28;20275;-45
2022/04/10 02:47:57;;;;;;;;;;;;;;;17.35;51.66;100016.34;2080392;28;19931;-44
2022/04/10 02:48:57;;;;;;;;;;;;;;;17.36;51.92;100012.59;2080138;28;20403;-42
2022/04/10 02:49:58;;;;;;;;;;;;;;;17.37;51.94;100019.81;2082367;28;19930;-42
2022/04/10 02:50:58;;;;;;;;;;;;;;;17.37;51.84;100008.91;2080688;28;19925;-42
2022/04/10 02:51:58;;;;;;;;;;;;;;;17.37;51.75;100006.19;2081105;28;20417;-44
2022/04/10 02:52:59;;;;;;;;;;;;;;;17.38;51.84;100007.03;2081463;28;20359;-43
2022/04/10 02:53:59;;;;;;;;;;;;;;;17.38;51.93;100004.31;2079713;28;19917;-43
2022/04/10 02:54:59;;;;;;;;;;;;;;;17.38;51.98;100009.75;2081050;28;20021;-42
2022/04/10 02:56:00;;;;;;;;;;;;;;;17.36;51.80;100007.16;2077123;28;20031;-44
2022/04/10 02:57:00;;;;;;;;;;;;;;;17.36;51.94;100001.72;2082964;28;19966;-42
2022/04/10 02:58:00;;;;;;;;;;;;;;;17.36;51.64;100004.44;2079755;28;20417;-44
2022/04/10 02:59:00;;;;;;;;;;;;;;;17.35;51.70;100002.72;2079815;28;20075;-43
2022/04/10 03:00:03;;;;;;;;;;;;;;;17.34;51.80;100001.00;2081755;28;19951;-46
2022/04/10 03:01:03;;;;;;;;;;;;;;;17.35;51.79;100005.44;2080337;28;19921;-43
2022/04/10 03:02:03;;;;;;;;;;;;;;;17.35;51.99;100005.44;2077984;28;19974;-45
2022/04/10 03:03:04;;;;;;;;;;;;;;;17.34;51.87;100011.88;2078329;28;19932;-43
2022/04/10 03:04:04;;;;;;;;;;;;;;;17.33;51.74;100008.31;2081649;28;19943;-44
2022/04/10 03:05:05;;;;;;;;;;;;;;;17.33;51.81;100012.91;2081849;28;19952;-43
2022/04/10 03:06:05;;;;;;;;;;;;;;;17.33;51.92;100012.91;2080088;28;19967;-43
2022/04/10 03:07:05;;;;;;;;;;;;;;;17.33;51.81;100007.44;2082534;28;19928;-43
2022/04/10 03:08:06;;;;;;;;;;;;;;;17.31;51.74;100015.75;2083275;28;20039;-47
2022/04/10 03:09:07;;;;;;;;;;;;;;;17.32;51.91;100011.16;2082243;28;20254;-43
2022/04/10 03:10:08;;;;;;;;;;;;;;;17.30;51.88;100014.03;2083176;28;19931;-42
2022/04/10 03:11:08;;;;;;;;;;;;;;;17.31;51.84;100018.47;2081201;28;20310;-43
2022/04/10 03:12:09;;;;;;;;;;;;;;;17.30;51.78;100013.19;2079429;28;20797;-43
2022/04/10 03:13:09;;;;;;;;;;;;;;;17.31;51.75;100014.91;2078134;28;20347;-42
2022/04/10 03:14:10;;;;;;;;;;;;;;;17.30;51.97;100007.75;2077331;28;19925;-44
2022/04/10 03:15:11;;;;;;;;;;;;;;;17.30;51.71;100015.91;2080341;28;19936;-43
2022/04/10 03:16:12;;;;;;;;;;;;;;;17.31;51.67;100009.44;2081568;28;20639;-43
2022/04/10 03:17:12;;;;;;;;;;;;;;;17.30;51.95;100013.19;2081355;28;20515;-43
2022/04/10 03:18:12;;;;;;;;;;;;;;;17.30;51.58;100005.88;2082469;28;20009;-43
2022/04/10 03:19:13;;;;;;;;;;;;;;;17.29;51.77;100012.31;2079919;28;20037;-43
2022/04/10 03:20:13;;;;;;;;;;;;;;;17.29;51.74;100012.31;2080612;28;19920;-42
2022/04/10 03:21:13;;;;;;;;;;;;;;;17.30;51.69;100007.75;2080534;28;19924;-42
2022/04/10 03:22:14;;;;;;;;;;;;;;;17.30;51.74;100015.91;2084084;28;19928;-43
2022/04/10 03:23:14;;;;;;;;;;;;;;;17.31;51.92;100014.91;2080539;28;19920;-42
2022/04/10 03:24:14;;;;;;;;;;;;;;;17.30;51.66;100013.19;2083313;28;20166;-44
2022/04/10 03:25:15;;;;;;;;;;;;;;;17.30;51.74;100010.47;2077771;28;20611;-44
2022/04/10 03:26:15;;;;;;;;;;;;;;;17.31;51.66;100020.34;2080667;28;20151;-43
2022/04/10 03:27:15;;;;;;;;;;;;;;;17.28;51.85;100013.31;2084326;28;19920;-43
2022/04/10 03:28:16;;;;;;;;;;;;;;;17.30;51.67;100018.63;2082954;28;19954;-43
2022/04/10 03:29:16;;;;;;;;;;;;;;;17.28;51.68;100013.31;2081163;28;21035;-43
2022/04/10 03:30:16;;;;;;;;;;;;;;;17.28;51.64;100012.47;2083734;28;20194;-42
2022/04/10 03:31:16;;;;;;;;;;;;;;;17.27;51.83;100008.00;2079253;28;19962;-43
2022/04/10 03:32:17;;;;;;;;;;;;;;;17.27;51.70;100008.00;2083727;28;19921;-42
2022/04/10 03:33:17;;;;;;;;;;;;;;;17.27;51.79;100016.16;2077850;28;19920;-43
2022/04/10 03:34:18;;;;;;;;;;;;;;;17.27;51.71;100018.91;2080595;28;19920;-44
2022/04/10 03:35:18;;;;;;;;;;;;;;;17.26;51.72;100019.91;2083716;28;19920;-43
2022/04/10 03:36:18;;;;;;;;;;;;;;;17.26;51.89;100012.59;2080332;28;20299;-43
2022/04/10 03:37:18;;;;;;;;;;;;;;;17.25;51.96;100015.47;2083408;28;20002;-44
2022/04/10 03:38:19;;;;;;;;;;;;;;;17.25;51.62;100023.66;2079587;28;19927;-44
2022/04/10 03:39:19;;;;;;;;;;;;;;;17.26;51.86;100019.91;2080410;28;20137;-43
2022/04/10 03:40:20;;;;;;;;;;;;;;;17.24;51.55;100013.72;2080536;28;19913;-44
2022/04/10 03:41:20;;;;;;;;;;;;;;;17.25;51.78;100020.91;2079334;28;20231;-41
2022/04/10 03:42:20;;;;;;;;;;;;;;;17.24;51.79;100013.72;2084057;28;19947;-41
2022/04/10 03:43:21;;;;;;;;;;;;;;;17.25;51.55;100012.75;2081193;28;20311;-43
2022/04/10 03:44:21;;;;;;;;;;;;;;;17.25;51.82;100015.47;2079413;28;19938;-43
2022/04/10 03:45:21;;;;;;;;;;;;;;;17.23;51.71;100017.47;2081356;28;19921;-42
2022/04/10 03:46:21;;;;;;;;;;;;;;;17.24;51.55;100019.19;2079576;28;19921;-42
2022/04/10 03:47:22;;;;;;;;;;;;;;;17.24;51.84;100017.31;2082863;28;20090;-42
2022/04/10 03:48:22;;;;;;;;;;;;;;;17.25;51.57;100015.47;2081591;28;19947;-42
2022/04/10 03:49:22;;;;;;;;;;;;;;;17.26;51.78;100011.72;2080666;28;20159;-42
2022/04/10 03:50:23;;;;;;;;;;;;;;;17.26;51.57;100018.03;2097738;27;20167;-42
2022/04/10 03:51:23;;;;;;;;;;;;;;;17.27;51.65;100008.00;2095760;28;19927;-43
2022/04/10 03:52:24;;;;;;;;;;;;;;;17.26;51.96;100009.88;2079705;28;19951;-43
2022/04/10 03:53:24;;;;;;;;;;;;;;;17.28;51.86;100009.75;2097912;28;19930;-42
2022/04/10 03:54:24;;;;;;;;;;;;;;;17.27;51.63;100008.88;2098586;27;19949;-46
2022/04/10 03:55:24;;;;;;;;;;;;;;;17.28;51.75;100009.75;2080770;28;20466;-42
2022/04/10 03:56:25;;;;;;;;;;;;;;;17.28;51.89;100010.59;2083493;28;20369;-43
2022/04/10 03:57:25;;;;;;;;;;;;;;;17.29;51.87;100011.44;2080450;28;20372;-43
2022/04/10 03:58:25;;;;;;;;;;;;;;;17.29;52.12;100012.31;2080320;28;19920;-42
2022/04/10 03:59:26;;;;;;;;;;;;;;;17.29;51.64;100012.31;2083352;28;19924;-44
2022/04/10 04:00:27;;;;;;;;;;;;;;;17.30;51.91;100015.91;2082829;28;19920;-43
2022/04/10 04:01:27;;;;;;;;;;;;;;;17.30;51.77;100007.75;2083035;28;19977;-43
2022/04/10 04:02:27;;;;;;;;;;;;;;;17.29;51.87;100006.00;2079027;28;20325;-43
2022/04/10 04:03:27;;;;;;;;;;;;;;;17.28;51.88;100009.75;2079246;28;20505;-43
2022/04/10 04:04:28;;;;;;;;;;;;;;;17.28;51.89;100009.75;2081736;28;19974;-43
2022/04/10 04:05:28;;;;;;;;;;;;;;;17.27;51.89;100008.00;2084637;28;19920;-43
2022/04/10 04:06:29;;;;;;;;;;;;;;;17.27;51.74;100000.72;2080851;28;19920;-43
2022/04/10 04:07:29;;;;;;;;;;;;;;;17.27;51.80;100008.00;2082587;28;19928;-43
2022/04/10 04:08:29;;;;;;;;;;;;;;;17.27;51.97;100008.88;2084010;28;20326;-42
2022/04/10 04:09:30;;;;;;;;;;;;;;;17.27;51.77;100008.88;2080380;28;20121;-43
2022/04/10 04:10:30;;;;;;;;;;;;;;;17.25;51.75;100005.44;2084816;28;19921;-43
2022/04/10 04:11:30;;;;;;;;;;;;;;;17.27;51.89;100010.72;2077801;28;20713;-42
2022/04/10 04:12:31;;;;;;;;;;;;;;;17.28;51.78;100009.75;2081506;28;19921;-44
2022/04/10 04:13:33;;;;;;;;;;;;;;;17.28;51.80;100013.31;2083241;28;19913;-42
2022/04/10 04:14:34;;;;;;;;;;;;;;;17.29;51.80;100011.44;2080300;28;19925;-42
2022/04/10 04:15:35;;;;;;;;;;;;;;;17.29;51.75;100006.84;2083724;28;20192;-43
2022/04/10 04:16:35;;;;;;;;;;;;;;;17.29;51.66;100006.00;2076834;28;19927;-42
2022/04/10 04:17:35;;;;;;;;;;;;;;;17.28;51.81;100009.75;2083973;28;20014;-42
2022/04/10 04:18:37;;;;;;;;;;;;;;;17.28;51.62;100009.75;2075964;28;19936;-43
2022/04/10 04:19:37;;;;;;;;;;;;;;;17.28;51.81;100009.75;2081504;28;20432;-42
2022/04/10 04:20:37;;;;;;;;;;;;;;;17.27;51.70;100013.44;2081402;28;20230;-43
2022/04/10 04:21:38;;;;;;;;;;;;;;;17.27;51.95;100008.00;2079079;28;19917;-42
2022/04/10 04:22:38;;;;;;;;;;;;;;;17.26;51.49;100006.28;2081850;28;20434;-43
2022/04/10 04:23:38;;;;;;;;;;;;;;;17.25;51.63;99999.97;2082902;28;19930;-42
2022/04/10 04:24:39;;;;;;;;;;;;;;;17.25;51.73;100005.44;2079489;28;20045;-43
2022/04/10 04:25:39;;;;;;;;;;;;;;;17.26;51.83;100006.28;2082427;28;19916;-43
2022/04/10 04:26:39;;;;;;;;;;;;;;;17.25;51.67;99997.25;2082113;28;20018;-44
2022/04/10 04:27:40;;;;;;;;;;;;;;;17.23;51.68;99996.53;2087157;28;20349;-43
2022/04/10 04:28:40;;;;;;;;;;;;;;;17.24;51.68;99997.38;2080906;28;19924;-43
2022/04/10 04:29:41;;;;;;;;;;;;;;;17.24;51.70;99997.38;2078319;28;19927;-43
2022/04/10 04:30:41;;;;;;;;;;;;;;;17.23;51.63;99996.53;2097592;28;20030;-43
2022/04/10 04:31:42;;;;;;;;;;;;;;;17.23;51.74;100001.13;2095495;28;19923;-43
2022/04/10 04:32:42;;;;;;;;;;;;;;;17.22;51.79;99996.66;2083996;28;19942;-42
2022/04/10 04:33:42;;;;;;;;;;;;;;;17.22;51.89;99993.94;2077603;28;19964;-42
2022/04/10 04:34:43;;;;;;;;;;;;;;;17.22;51.72;99999.38;2084000;28;20305;-42
2022/04/10 04:35:43;;;;;;;;;;;;;;;17.22;51.73;99999.38;2082445;28;19916;-43
2022/04/10 04:36:43;;;;;;;;;;;;;;;17.21;51.71;99997.69;2081006;28;20010;-43
2022/04/10 04:37:44;;;;;;;;;;;;;;;17.21;51.78;99994.94;2081654;28;19920;-43
2022/04/10 04:38:44;;;;;;;;;;;;;;;17.20;51.63;99995.94;2077788;28;19924;-42
2022/04/10 04:39:45;;;;;;;;;;;;;;;17.21;51.88;99994.94;2083513;28;20317;-44
2022/04/10 04:40:45;;;;;;;;;;;;;;;17.21;51.56;99997.69;2079945;28;20013;-43
2022/04/10 04:41:45;;;;;;;;;;;;;;;17.20;51.75;99993.22;2080545;28;20339;-44
2022/04/10 04:42:45;;;;;;;;;;;;;;;17.20;51.96;99995.94;2080267;28;20345;-43
2022/04/10 04:43:46;;;;;;;;;;;;;;;17.20;51.78;99995.94;2086008;28;20376;-43
2022/04/10 04:44:46;;;;;;;;;;;;;;;17.20;51.53;99998.66;2083495;28;19920;-42
2022/04/10 04:45:47;;;;;;;;;;;;;;;17.19;51.78;99991.50;2082407;28;19921;-42
2022/04/10 04:46:47;;;;;;;;;;;;;;;17.20;51.80;99995.94;2081926;28;20207;-43
2022/04/10 04:47:48;;;;;;;;;;;;;;;17.19;51.53;99992.34;2083451;28;19924;-42
2022/04/10 04:48:49;;;;;;;;;;;;;;;17.19;51.77;99986.06;2080898;28;20309;-42
2022/04/10 04:49:49;;;;;;;;;;;;;;;17.19;51.75;99988.78;2075705;28;20405;-43
2022/04/10 04:50:49;;;;;;;;;;;;;;;17.18;51.72;99982.47;2082323;28;20266;-42
2022/04/10 04:51:50;;;;;;;;;;;;;;;17.18;51.82;99976.16;2082016;28;19920;-43
2022/04/10 04:52:50;;;;;;;;;;;;;;;17.19;51.50;99977.88;2085009;28;19928;-43
2022/04/10 04:53:51;;;;;;;;;;;;;;;17.18;51.76;99981.63;2083882;28;19928;-42
2022/04/10 04:54:51;;;;;;;;;;;;;;;17.18;51.79;99970.72;2077848;28;19924;-42
2022/04/10 04:55:51;;;;;;;;;;;;;;;17.18;51.51;99976.16;2087398;28;20007;-42
2022/04/10 04:56:52;;;;;;;;;;;;;;;17.17;51.67;99971.72;2079223;28;20052;-42
2022/04/10 04:57:52;;;;;;;;;;;;;;;17.17;51.68;99972.56;2081861;28;20528;-43
2022/04/10 04:58:53;;;;;;;;;;;;;;;17.16;51.61;99975.44;2087414;28;20476;-42
2022/04/10 04:59:53;;;;;;;;;;;;;;;17.17;51.56;99968.97;2078415;28;19920;-42
2022/04/10 05:00:53;;;;;;;;;;;;;;;17.16;51.80;99970.00;2076831;28;20713;-42
2022/04/10 05:01:55;;;;;;;;;;;;;;;17.17;51.67;99974.44;2079684;28;19927;-42
2022/04/10 05:02:56;;;;;;;;;;;;;;;17.16;51.55;99972.72;2079007;28;20383;-43
2022/04/10 05:03:56;;;;;;;;;;;;;;;17.17;51.54;99974.44;2082236;28;20352;-41
2022/04/10 05:04:57;;;;;;;;;;;;;;;17.16;51.54;99968.13;2082320;28;20001;-42
2022/04/10 05:05:57;;;;;;;;;;;;;;;17.18;51.70;99970.72;2079389;28;19979;-42
2022/04/10 05:06:57;;;;;;;;;;;;;;;17.18;51.70;99976.16;2082907;28;20208;-42
2022/04/10 05:07:57;;;;;;;;;;;;;;;17.18;51.90;99970.72;2075596;28;21277;-42
2022/04/10 05:08:58;;;;;;;;;;;;;;;17.18;51.87;99976.16;2082225;28;19924;-42
2022/04/10 05:09:58;;;;;;;;;;;;;;;17.18;51.81;99973.44;2079154;28;20053;-43
2022/04/10 05:10:59;;;;;;;;;;;;;;;17.19;51.76;99973.28;2079976;28;19971;-42
2022/04/10 05:12:00;;;;;;;;;;;;;;;17.19;51.79;99973.28;2080856;28;20411;-43